createdAt,value
2022-10-17T00:01:12.406Z,100.00
2022-10-17T00:03:41.770Z,100.00
2022-10-17T00:06:13.773Z,100.00
2022-10-17T00:08:43.754Z,100.00
2022-10-17T00:11:22.111Z,100.00
2022-10-17T00:13:52.329Z,100.00
2022-10-17T00:16:29.717Z,100.00
2022-10-17T00:18:58.249Z,100.00
2022-10-17T00:21:26.957Z,100.00
2022-10-17T00:28:27.939Z,100.00
2022-10-17T00:31:33.790Z,100.00
2022-10-17T00:34:48.642Z,100.00
2022-10-17T00:37:23.485Z,100.00
2022-10-17T00:46:03.506Z,100.00
2022-10-17T00:48:34.820Z,100.00
2022-10-17T00:51:19.313Z,100.00
2022-10-17T00:54:00.257Z,100.00
2022-10-17T00:56:44.216Z,100.00
2022-10-17T00:59:54.632Z,100.00
2022-10-17T01:02:24.987Z,100.00
2022-10-17T01:04:55.684Z,100.00
2022-10-17T01:07:24.253Z,100.00
2022-10-17T01:09:52.686Z,100.00
2022-10-17T01:12:34.119Z,100.00
2022-10-17T01:15:15.182Z,100.00
2022-10-17T01:18:29.789Z,100.00
2022-10-17T01:21:25.701Z,100.00
2022-10-17T01:24:27.709Z,100.00
2022-10-17T01:27:29.980Z,100.00
2022-10-17T01:30:43.123Z,100.00
2022-10-17T01:33:58.717Z,100.00
2022-10-17T01:36:47.522Z,100.00
2022-10-17T01:39:43.890Z,100.00
2022-10-17T01:42:23.158Z,100.00
2022-10-17T01:45:10.037Z,100.00
2022-10-17T01:47:38.448Z,100.00
2022-10-17T01:50:18.348Z,100.00
2022-10-17T01:53:04.843Z,100.00
2022-10-17T01:55:37.900Z,100.00
2022-10-17T01:58:30.002Z,100.00
2022-10-17T02:01:02.126Z,100.00
2022-10-17T02:03:30.772Z,100.00
2022-10-17T02:05:59.124Z,100.00
2022-10-17T02:08:46.007Z,100.00
2022-10-17T02:11:26.626Z,100.00
2022-10-17T02:14:24.352Z,100.00
2022-10-17T02:17:19.373Z,100.00
2022-10-17T02:20:26.849Z,100.00
2022-10-17T02:23:06.081Z,100.00
2022-10-17T02:25:52.510Z,100.00
2022-10-17T02:28:23.773Z,100.00
2022-10-17T02:31:00.006Z,100.00
2022-10-17T02:33:58.051Z,100.00
2022-10-17T02:36:39.727Z,100.00
2022-10-17T02:39:10.374Z,100.00
2022-10-17T02:53:49.812Z,100.00
2022-10-17T03:02:08.105Z,100.00
2022-10-17T03:04:36.596Z,100.00
2022-10-17T03:07:05.532Z,100.00
2022-10-17T03:09:33.973Z,100.00
2022-10-17T03:12:02.468Z,100.00
2022-10-17T03:14:30.843Z,100.00
2022-10-17T03:16:59.239Z,100.00
2022-10-17T03:19:27.616Z,100.00
2022-10-17T03:21:56.571Z,100.00
2022-10-17T03:24:24.986Z,100.00
2022-10-17T03:26:53.347Z,100.00
2022-10-17T03:29:21.685Z,100.00
2022-10-17T03:31:50.025Z,100.00
2022-10-17T03:34:18.906Z,100.00
2022-10-17T03:36:47.614Z,100.00
2022-10-17T03:39:15.939Z,100.00
2022-10-17T03:41:44.348Z,100.00
2022-10-17T03:44:12.705Z,100.00
2022-10-17T03:46:41.043Z,100.00
2022-10-17T03:49:10.993Z,100.00
2022-10-17T03:51:39.612Z,100.00
2022-10-17T03:54:07.972Z,100.00
2022-10-17T03:56:36.410Z,100.00
2022-10-17T03:59:05.147Z,100.00
2022-10-17T04:01:33.587Z,100.00
2022-10-17T04:04:02.023Z,100.00
2022-10-17T04:06:30.326Z,100.00
2022-10-17T04:08:58.859Z,100.00
2022-10-17T04:11:27.233Z,100.00
2022-10-17T04:13:57.681Z,100.00
2022-10-17T04:16:26.501Z,100.00
2022-10-17T04:18:57.272Z,100.00
2022-10-17T04:21:27.408Z,100.00
2022-10-17T04:23:57.046Z,100.00
2022-10-17T04:26:25.508Z,100.00
2022-10-17T04:28:53.881Z,100.00
2022-10-17T04:31:22.260Z,100.00
2022-10-17T04:33:51.697Z,100.00
2022-10-17T04:36:22.962Z,100.00
2022-10-17T04:38:51.060Z,100.00
2022-10-17T04:41:20.119Z,100.00
2022-10-17T04:43:51.083Z,100.00
2022-10-17T04:49:12.568Z,100.00
2022-10-17T04:51:41.154Z,100.00
2022-10-17T04:54:09.604Z,100.00
2022-10-17T04:56:38.108Z,100.00
2022-10-17T04:59:06.462Z,100.00
2022-10-17T05:01:35.022Z,100.00
2022-10-17T05:04:03.365Z,100.00
2022-10-17T05:06:32.908Z,100.00
2022-10-17T05:09:01.274Z,100.00
2022-10-17T05:11:30.509Z,100.00
2022-10-17T05:14:01.597Z,100.00
2022-10-17T05:16:31.020Z,100.00
2022-10-17T05:18:59.976Z,100.00
2022-10-17T05:21:30.318Z,100.00
2022-10-17T05:23:59.044Z,100.00
2022-10-17T05:26:27.576Z,100.00
2022-10-17T05:28:55.979Z,100.00
2022-10-17T05:31:24.348Z,100.00
2022-10-17T05:33:52.720Z,100.00
2022-10-17T05:36:21.119Z,100.00
2022-10-17T05:38:53.372Z,100.00
2022-10-17T05:41:22.183Z,100.00
2022-10-17T05:43:50.836Z,100.00
2022-10-17T05:46:19.340Z,100.00
2022-10-17T05:48:47.656Z,100.00
2022-10-17T05:51:16.029Z,100.00
2022-10-17T05:53:44.477Z,100.00
2022-10-17T05:56:14.477Z,100.00
2022-10-17T05:58:50.803Z,100.00
2022-10-17T06:01:20.465Z,99.94
2022-10-17T06:03:48.973Z,99.77
2022-10-17T06:06:17.976Z,99.47
2022-10-17T06:08:46.796Z,99.33
2022-10-17T06:11:15.514Z,99.07
2022-10-17T06:13:43.949Z,98.96
2022-10-17T06:16:12.314Z,98.84
2022-10-17T06:18:40.683Z,98.73
2022-10-17T06:21:12.034Z,98.49
2022-10-17T06:23:40.448Z,98.51
2022-10-17T06:26:09.089Z,98.20
2022-10-17T06:28:37.774Z,98.03
2022-10-17T06:31:08.174Z,97.93
2022-10-17T06:33:37.528Z,97.69
2022-10-17T06:36:08.516Z,97.62
2022-10-17T06:38:37.103Z,97.62
2022-10-17T06:41:16.731Z,97.28
2022-10-17T06:43:46.707Z,96.69
2022-10-17T06:46:17.448Z,96.27
2022-10-17T06:48:45.908Z,96.29
2022-10-17T06:51:14.433Z,95.98
2022-10-17T06:53:42.830Z,95.91
2022-10-17T06:56:12.129Z,95.60
2022-10-17T06:58:41.644Z,95.16
2022-10-17T07:01:14.397Z,94.38
2022-10-17T07:03:43.872Z,94.08
2022-10-17T07:06:12.091Z,93.54
2022-10-17T07:08:44.739Z,93.09
2022-10-17T07:11:16.657Z,92.56
2022-10-17T07:13:45.221Z,92.25
2022-10-17T07:16:15.588Z,91.91
2022-10-17T07:18:44.677Z,91.34
2022-10-17T07:21:13.085Z,91.04
2022-10-17T07:23:41.595Z,90.75
2022-10-17T07:26:14.008Z,90.55
2022-10-17T07:28:45.059Z,90.73
2022-10-17T07:31:17.678Z,90.42
2022-10-17T07:36:20.047Z,89.83
2022-10-17T07:38:48.411Z,89.79
2022-10-17T07:41:19.455Z,89.28
2022-10-17T07:43:50.229Z,89.27
2022-10-17T07:46:18.629Z,88.71
2022-10-17T07:48:47.048Z,88.63
2022-10-17T07:51:15.482Z,88.03
2022-10-17T07:53:46.545Z,87.62
2022-10-17T07:56:17.310Z,86.17
2022-10-17T07:58:45.894Z,86.12
2022-10-17T08:01:16.195Z,85.73
2022-10-17T08:03:46.121Z,85.36
2022-10-17T08:06:14.791Z,85.78
2022-10-17T08:08:43.646Z,85.87
2022-10-17T08:11:14.357Z,86.34
2022-10-17T08:13:43.360Z,86.68
2022-10-17T08:16:14.172Z,86.63
2022-10-17T08:18:44.014Z,86.47
2022-10-17T08:21:13.393Z,86.64
2022-10-17T08:23:41.766Z,86.98
2022-10-17T08:26:13.298Z,86.92
2022-10-17T08:28:42.076Z,87.04
2022-10-17T08:31:14.053Z,86.33
2022-10-17T08:33:43.122Z,86.33
2022-10-17T08:36:11.881Z,86.07
2022-10-17T08:38:43.741Z,85.47
2022-10-17T08:41:37.553Z,85.58
2022-10-17T08:44:44.167Z,85.67
2022-10-17T08:47:18.113Z,84.95
2022-10-17T08:49:55.714Z,83.52
2022-10-17T08:53:03.896Z,82.92
2022-10-17T08:55:34.766Z,82.51
2022-10-17T08:58:03.140Z,81.88
2022-10-17T09:00:33.643Z,81.21
2022-10-17T09:03:33.996Z,80.57
2022-10-17T09:06:41.035Z,79.71
2022-10-17T09:09:46.937Z,79.34
2022-10-17T09:12:34.108Z,79.84
2022-10-17T09:15:39.224Z,78.44
2022-10-17T09:18:25.036Z,78.14
2022-10-17T09:21:02.558Z,78.73
2022-10-17T09:23:59.609Z,78.48
2022-10-17T09:26:38.521Z,78.71
2022-10-17T09:29:19.439Z,78.32
2022-10-17T09:32:02.282Z,78.35
2022-10-17T09:34:32.948Z,78.73
2022-10-17T09:37:07.566Z,78.77
2022-10-17T09:39:35.906Z,78.42
2022-10-17T09:42:04.646Z,78.42
2022-10-17T09:44:37.492Z,77.80
2022-10-17T09:47:20.886Z,77.90
2022-10-17T09:49:50.854Z,77.54
2022-10-17T09:52:37.157Z,77.84
2022-10-17T09:55:19.407Z,76.78
2022-10-17T09:57:59.244Z,76.01
2022-10-17T10:00:39.816Z,76.19
2022-10-17T10:03:18.037Z,76.02
2022-10-17T10:06:26.663Z,75.70
2022-10-17T10:09:25.753Z,75.23
2022-10-17T10:11:59.817Z,75.44
2022-10-17T10:14:39.646Z,74.96
2022-10-17T10:17:29.216Z,73.57
2022-10-17T10:19:57.910Z,72.96
2022-10-17T10:22:26.745Z,72.55
2022-10-17T10:25:17.307Z,71.81
2022-10-17T10:27:46.780Z,71.79
2022-10-17T10:30:34.926Z,71.23
2022-10-17T10:33:07.397Z,70.87
2022-10-17T10:35:38.191Z,71.37
2022-10-17T10:38:15.597Z,70.48
2022-10-17T10:40:51.640Z,71.60
2022-10-17T10:43:44.675Z,70.08
2022-10-17T10:46:26.763Z,70.75
2022-10-17T10:48:59.622Z,69.33
2022-10-17T10:51:47.778Z,69.50
2022-10-17T10:54:34.110Z,69.24
2022-10-17T10:57:07.286Z,68.23
2022-10-17T11:00:04.755Z,68.56
2022-10-17T11:02:54.527Z,69.41
2022-10-17T11:05:46.474Z,68.45
2022-10-17T11:08:46.228Z,67.33
2022-10-17T11:11:34.247Z,66.41
2022-10-17T11:14:26.205Z,67.05
2022-10-17T11:17:50.160Z,66.55
2022-10-17T11:20:38.103Z,67.94
2022-10-17T11:23:30.787Z,66.03
2022-10-17T11:26:02.369Z,66.10
2022-10-17T11:28:32.056Z,65.16
2022-10-17T11:31:14.839Z,64.80
2022-10-17T11:34:01.367Z,65.25
2022-10-17T11:36:36.614Z,65.57
2022-10-17T11:39:24.254Z,65.31
2022-10-17T11:42:03.563Z,65.20
2022-10-17T11:44:42.568Z,65.08
2022-10-17T11:47:45.526Z,65.07
2022-10-17T11:53:42.414Z,65.15
2022-10-17T11:56:12.740Z,64.36
2022-10-17T11:59:02.713Z,64.43
2022-10-17T12:01:33.862Z,64.39
2022-10-17T12:04:35.610Z,65.24
2022-10-17T12:07:29.343Z,64.63
2022-10-17T12:10:34.547Z,64.73
2022-10-17T12:13:35.713Z,63.62
2022-10-17T12:16:21.886Z,62.95
2022-10-17T12:19:13.954Z,63.56
2022-10-17T12:22:03.768Z,63.35
2022-10-17T12:24:36.018Z,63.73
2022-10-17T12:27:38.933Z,63.35
2022-10-17T12:30:07.400Z,63.21
2022-10-17T12:33:00.098Z,63.30
2022-10-17T12:35:26.753Z,62.35
2022-10-17T12:37:58.612Z,63.18
2022-10-17T12:40:36.298Z,63.13
2022-10-17T12:43:29.945Z,63.21
2022-10-17T12:46:05.751Z,63.23
2022-10-17T12:48:39.662Z,63.61
2022-10-17T12:51:35.437Z,63.46
2022-10-17T12:54:13.478Z,62.24
2022-10-17T12:56:49.009Z,63.02
2022-10-17T12:59:23.646Z,62.60
2022-10-17T13:01:59.900Z,62.21
2022-10-17T13:04:28.653Z,62.41
2022-10-17T13:07:01.124Z,63.13
2022-10-17T13:09:37.974Z,63.59
2022-10-17T13:12:15.893Z,64.33
2022-10-17T13:14:44.791Z,63.28
2022-10-17T13:17:32.051Z,62.84
2022-10-17T13:20:00.566Z,63.61
2022-10-17T13:22:32.659Z,64.16
2022-10-17T13:25:19.850Z,63.80
2022-10-17T13:27:48.993Z,63.44
2022-10-17T13:30:33.410Z,63.29
2022-10-17T13:33:03.103Z,63.78
2022-10-17T13:38:34.797Z,63.23
2022-10-17T13:44:08.392Z,63.42
2022-10-17T13:46:39.480Z,63.74
2022-10-17T13:49:28.138Z,63.87
2022-10-17T13:51:58.896Z,64.10
2022-10-17T13:57:36.494Z,63.14
2022-10-17T14:00:12.847Z,63.78
2022-10-17T14:02:42.668Z,64.31
2022-10-17T14:05:18.678Z,64.55
2022-10-17T14:08:12.769Z,64.33
2022-10-17T14:10:45.635Z,63.73
2022-10-17T14:13:27.554Z,63.72
2022-10-17T14:16:00.859Z,63.38
2022-10-17T14:18:41.113Z,64.41
2022-10-17T14:21:44.527Z,64.04
2022-10-17T14:24:31.553Z,64.13
2022-10-17T14:27:01.249Z,65.04
2022-10-17T14:29:51.903Z,64.44
2022-10-17T14:32:21.447Z,64.51
2022-10-17T14:35:05.532Z,64.09
2022-10-17T14:37:53.083Z,64.39
2022-10-17T14:40:25.369Z,63.62
2022-10-17T14:42:58.383Z,63.52
2022-10-17T14:45:32.622Z,62.82
2022-10-17T14:48:13.008Z,61.85
2022-10-17T14:53:16.760Z,62.31
2022-10-17T14:56:06.680Z,62.58
2022-10-17T14:58:35.447Z,62.18
2022-10-17T15:01:04.105Z,62.93
2022-10-17T15:03:32.423Z,63.04
2022-10-17T15:06:31.451Z,62.11
2022-10-17T15:08:59.951Z,62.63
2022-10-17T15:11:28.514Z,62.52
2022-10-17T15:13:56.879Z,62.73
2022-10-17T15:16:33.065Z,62.08
2022-10-17T15:19:01.842Z,61.96
2022-10-17T15:21:40.793Z,63.12
2022-10-17T15:24:11.705Z,62.60
2022-10-17T15:26:40.260Z,62.59
2022-10-17T15:29:08.848Z,63.09
2022-10-17T15:31:37.223Z,63.55
2022-10-17T15:34:05.541Z,63.70
2022-10-17T15:36:54.004Z,64.30
2022-10-17T15:39:22.429Z,64.96
2022-10-17T15:41:50.984Z,65.07
2022-10-17T15:44:19.377Z,65.74
2022-10-17T15:46:47.794Z,65.63
2022-10-17T15:52:12.491Z,66.17
2022-10-17T15:54:40.919Z,66.43
2022-10-17T15:57:26.035Z,66.96
2022-10-17T15:59:55.567Z,67.58
2022-10-17T16:02:24.983Z,67.65
2022-10-17T16:04:53.891Z,67.99
2022-10-17T16:07:22.766Z,68.45
2022-10-17T16:09:51.176Z,68.79
2022-10-17T16:12:29.060Z,68.28
2022-10-17T16:14:57.427Z,68.86
2022-10-17T16:17:25.910Z,68.64
2022-10-17T16:19:54.359Z,69.05
2022-10-17T16:22:36.655Z,69.55
2022-10-17T16:25:19.605Z,70.19
2022-10-17T16:27:49.838Z,70.60
2022-10-17T16:30:18.662Z,71.43
2022-10-17T16:32:47.400Z,72.15
2022-10-17T16:35:34.756Z,72.25
2022-10-17T16:38:08.174Z,73.58
2022-10-17T16:40:36.920Z,74.01
2022-10-17T16:43:05.321Z,74.87
2022-10-17T16:45:33.786Z,75.33
2022-10-17T16:48:02.215Z,75.72
2022-10-17T16:50:31.282Z,75.81
2022-10-17T16:52:59.767Z,76.38
2022-10-17T16:55:28.259Z,77.36
2022-10-17T16:57:56.907Z,77.77
2022-10-17T17:00:26.308Z,78.84
2022-10-17T17:02:54.862Z,79.38
2022-10-17T17:05:23.211Z,79.91
2022-10-17T17:07:51.752Z,80.27
2022-10-17T17:10:20.086Z,80.98
2022-10-17T17:12:48.621Z,81.34
2022-10-17T17:15:17.137Z,81.86
2022-10-17T17:17:50.456Z,82.08
2022-10-17T17:20:19.934Z,82.84
2022-10-17T17:22:48.866Z,83.37
2022-10-17T17:25:17.351Z,83.69
2022-10-17T17:27:45.677Z,84.20
2022-10-17T17:30:14.023Z,84.32
2022-10-17T17:32:42.349Z,84.53
2022-10-17T17:35:10.896Z,84.66
2022-10-17T17:37:39.382Z,84.68
2022-10-17T17:40:08.428Z,84.76
2022-10-17T17:42:36.881Z,84.99
2022-10-17T17:45:06.155Z,85.55
2022-10-17T17:47:34.699Z,85.89
2022-10-17T17:50:03.661Z,86.22
2022-10-17T17:52:32.358Z,86.09
2022-10-17T17:55:00.980Z,86.00
2022-10-17T17:57:31.271Z,86.08
2022-10-17T17:59:59.571Z,86.65
2022-10-17T18:02:27.979Z,86.92
2022-10-17T18:04:56.594Z,87.04
2022-10-17T18:07:25.395Z,87.09
2022-10-17T18:09:53.976Z,87.51
2022-10-17T18:12:22.353Z,87.72
2022-10-17T18:14:50.735Z,88.07
2022-10-17T18:17:19.083Z,88.64
2022-10-17T18:19:47.401Z,88.83
2022-10-17T18:22:15.762Z,89.55
2022-10-17T18:24:44.275Z,89.76
2022-10-17T18:27:15.865Z,90.13
2022-10-17T18:29:45.926Z,90.27
2022-10-17T18:32:15.829Z,90.32
2022-10-17T18:34:44.303Z,90.01
2022-10-17T18:37:12.703Z,89.73
2022-10-17T18:39:41.344Z,89.37
2022-10-17T18:42:11.253Z,89.44
2022-10-17T18:44:39.511Z,89.50
2022-10-17T18:47:07.934Z,89.97
2022-10-17T18:49:36.955Z,90.36
2022-10-17T18:52:05.369Z,90.87
2022-10-17T18:54:34.744Z,91.51
2022-10-17T18:57:03.498Z,91.50
2022-10-17T18:59:31.924Z,91.97
2022-10-17T19:02:00.514Z,92.10
2022-10-17T19:04:28.956Z,92.13
2022-10-17T19:06:57.365Z,92.09
2022-10-17T19:09:25.700Z,92.46
2022-10-17T19:11:54.031Z,92.69
2022-10-17T19:14:22.327Z,93.29
2022-10-17T19:16:51.997Z,93.55
2022-10-17T19:19:28.071Z,93.72
2022-10-17T19:21:56.349Z,94.09
2022-10-17T19:24:29.166Z,93.96
2022-10-17T19:27:02.705Z,93.77
2022-10-17T19:29:33.056Z,93.33
2022-10-17T19:32:02.628Z,92.73
2022-10-17T19:34:31.065Z,92.55
2022-10-17T19:36:59.346Z,92.13
2022-10-17T19:39:28.089Z,92.40
2022-10-17T19:41:56.422Z,92.83
2022-10-17T19:44:24.862Z,93.25
2022-10-17T19:46:53.541Z,93.83
2022-10-17T19:49:22.097Z,94.07
2022-10-17T19:51:50.487Z,94.62
2022-10-17T19:54:20.313Z,94.81
2022-10-17T19:56:48.902Z,95.12
2022-10-17T19:59:18.548Z,95.30
2022-10-17T20:01:47.433Z,95.15
2022-10-17T20:04:15.937Z,95.02
2022-10-17T20:06:44.658Z,94.78
2022-10-17T20:09:16.653Z,94.62
2022-10-17T20:11:46.459Z,94.73
2022-10-17T20:14:14.825Z,94.42
2022-10-17T20:16:44.692Z,94.39
2022-10-17T20:19:14.558Z,94.38
2022-10-17T20:21:44.499Z,94.84
2022-10-17T20:24:16.447Z,95.37
2022-10-17T20:26:45.136Z,95.22
2022-10-17T20:29:20.461Z,95.62
2022-10-17T20:31:49.368Z,95.54
2022-10-17T20:34:19.654Z,95.80
2022-10-17T20:36:48.974Z,95.77
2022-10-17T20:39:19.165Z,95.41
2022-10-17T20:41:47.707Z,95.33
2022-10-17T20:44:16.102Z,95.35
2022-10-17T20:46:52.920Z,95.49
2022-10-17T20:49:29.394Z,95.17
2022-10-17T20:51:58.099Z,95.23
2022-10-17T20:54:27.794Z,95.51
2022-10-17T20:56:58.725Z,95.51
2022-10-17T20:59:29.535Z,95.84
2022-10-17T21:02:12.915Z,95.98
2022-10-17T21:04:46.453Z,96.12
2022-10-17T21:07:15.851Z,96.21
2022-10-17T21:09:46.318Z,96.68
2022-10-17T21:12:21.893Z,97.09
2022-10-17T21:15:00.167Z,96.98
2022-10-17T21:17:29.057Z,97.09
2022-10-17T21:19:57.563Z,97.64
2022-10-17T21:22:25.942Z,97.87
2022-10-17T21:24:54.292Z,97.93
2022-10-17T21:27:22.854Z,98.24
2022-10-17T21:29:52.123Z,98.17
2022-10-17T21:32:33.351Z,98.13
2022-10-17T21:35:09.273Z,98.29
2022-10-17T21:37:37.590Z,98.13
2022-10-17T21:40:07.483Z,97.76
2022-10-17T21:42:35.785Z,97.85
2022-10-17T21:45:10.534Z,98.20
2022-10-17T21:47:49.844Z,98.24
2022-10-17T21:50:29.489Z,97.92
2022-10-17T21:52:59.637Z,98.12
2022-10-17T21:55:28.062Z,97.96
2022-10-17T21:57:56.486Z,97.85
2022-10-17T22:00:24.747Z,97.67
2022-10-17T22:02:53.062Z,97.83
2022-10-17T22:05:21.586Z,97.50
2022-10-17T22:07:50.144Z,97.83
2022-10-17T22:10:18.683Z,97.94
2022-10-17T22:12:47.011Z,97.92
2022-10-17T22:15:15.576Z,97.90
2022-10-17T22:17:43.864Z,98.01
2022-10-17T22:20:12.187Z,98.12
2022-10-17T22:22:40.491Z,98.28
2022-10-17T22:25:09.126Z,98.32
2022-10-17T22:27:37.389Z,98.22
2022-10-17T22:30:07.110Z,97.99
2022-10-17T22:32:35.512Z,97.89
2022-10-17T22:35:03.808Z,97.72
2022-10-17T22:37:32.347Z,97.54
2022-10-17T22:40:00.871Z,97.58
2022-10-17T22:42:31.493Z,97.46
2022-10-17T22:45:00.084Z,97.49
2022-10-17T22:47:29.526Z,97.58
2022-10-17T22:49:58.550Z,97.75
2022-10-17T22:52:27.107Z,97.70
2022-10-17T22:54:55.509Z,97.70
2022-10-17T22:57:23.795Z,97.76
2022-10-17T22:59:52.043Z,97.86
2022-10-17T23:02:20.524Z,97.62
2022-10-17T23:04:48.801Z,97.60
2022-10-17T23:07:17.095Z,97.82
2022-10-17T23:09:45.535Z,98.30
2022-10-17T23:12:13.843Z,97.96
2022-10-17T23:14:43.495Z,98.40
2022-10-17T23:17:12.847Z,98.56
2022-10-17T23:19:41.599Z,99.08
2022-10-17T23:22:10.188Z,99.05
2022-10-17T23:24:38.548Z,99.41
2022-10-17T23:27:06.903Z,99.42
2022-10-17T23:29:35.852Z,99.37
2022-10-17T23:32:04.258Z,99.78
2022-10-17T23:34:32.535Z,100.00
2022-10-17T23:37:01.039Z,100.00
2022-10-17T23:39:29.428Z,100.00
2022-10-17T23:41:58.062Z,100.00
2022-10-17T23:44:26.393Z,100.00
2022-10-17T23:46:54.786Z,100.00
2022-10-17T23:49:23.203Z,100.00
2022-10-17T23:51:51.465Z,100.00
2022-10-17T23:54:20.122Z,100.00
2022-10-17T23:56:48.416Z,100.00
2022-10-17T23:59:16.802Z,100.00
